Time,TemperatureF,DewpointF,PressureIn,WindDirection,WindDirectionDegrees,WindSpeedMPH,WindSpeedGustMPH,Humidity,HourlyPrecipIn,Conditions,Clouds,dailyrainin,SoftwareType,DateUTC
2013-08-11 00:01:00,64.0,57.0,-100.00,East,90,0.0,0.0,78,0.00,,,0.00,,2013-08-11 04:01:00,
2013-08-11 00:12:00,64.0,57.0,-100.00,South,180,2.0,3.0,78,0.00,,,0.00,,2013-08-11 04:12:00,
2013-08-11 00:22:00,64.0,57.0,-100.00,South,180,0.0,0.0,78,0.00,,,0.00,,2013-08-11 04:22:00,
2013-08-11 00:32:00,64.0,57.0,-100.00,ESE,113,0.0,0.0,78,0.00,,,0.00,,2013-08-11 04:32:00,
2013-08-11 00:43:00,63.0,56.0,-100.00,East,90,0.0,0.0,78,0.00,,,0.00,,2013-08-11 04:43:00,
2013-08-11 00:53:00,63.0,56.0,-100.00,East,90,0.0,0.0,79,0.00,,,0.00,,2013-08-11 04:53:00,
2013-08-11 01:02:00,63.0,57.0,-100.00,East,90,0.0,0.0,80,0.00,,,0.00,,2013-08-11 05:02:00,
2013-08-11 01:18:00,63.0,57.0,-100.00,East,90,0.0,0.0,81,0.00,,,0.00,,2013-08-11 05:18:00,
2013-08-11 01:25:00,62.0,56.0,-100.00,East,90,0.0,0.0,82,0.00,,,0.00,,2013-08-11 05:25:00,
2013-08-11 01:54:00,62.0,57.0,-100.00,East,90,0.0,0.0,85,0.00,,,0.00,,2013-08-11 05:54:00,
2013-08-11 02:04:00,62.0,57.0,-100.00,East,90,0.0,0.0,85,0.00,,,0.00,,2013-08-11 06:04:00,
2013-08-11 02:17:00,62.0,57.0,-100.00,East,90,0.0,0.0,85,0.00,,,0.00,,2013-08-11 06:17:00,
2013-08-11 02:26:00,62.0,57.0,-100.00,East,90,0.0,0.0,85,0.00,,,0.00,,2013-08-11 06:26:00,
2013-08-11 02:48:00,61.0,57.0,-100.00,East,90,0.0,0.0,86,0.00,,,0.00,,2013-08-11 06:48:00,
2013-08-11 02:55:00,61.0,57.0,-100.00,East,90,0.0,0.0,87,0.00,,,0.00,,2013-08-11 06:55:00,
2013-08-11 03:06:00,61.0,57.0,-100.00,East,90,0.0,0.0,88,0.00,,,0.00,,2013-08-11 07:06:00,
2013-08-11 03:24:00,61.0,58.0,-100.00,East,90,0.0,0.0,89,0.00,,,0.00,,2013-08-11 07:24:00,
2013-08-11 03:36:00,61.0,58.0,-100.00,East,90,0.0,0.0,89,0.00,,,0.00,,2013-08-11 07:36:00,
2013-08-11 03:54:00,61.0,58.0,-100.00,East,90,0.0,0.0,89,0.00,,,0.00,,2013-08-11 07:54:00,
2013-08-11 04:09:00,61.0,58.0,-100.00,East,90,0.0,0.0,89,0.00,,,0.00,,2013-08-11 08:09:00,
2013-08-11 04:18:00,62.0,59.0,-100.00,East,90,0.0,0.0,89,0.00,,,0.00,,2013-08-11 08:18:00,
2013-08-11 04:25:00,62.0,59.0,-100.00,East,90,0.0,0.0,89,0.00,,,0.00,,2013-08-11 08:25:00,
2013-08-11 04:35:00,62.0,59.0,-100.00,East,90,0.0,0.0,89,0.00,,,0.00,,2013-08-11 08:35:00,
2013-08-11 05:07:00,62.0,58.0,-100.00,East,90,0.0,0.0,88,0.00,,,0.00,,2013-08-11 09:07:00,
2013-08-11 05:15:00,62.0,58.0,-100.00,East,90,0.0,0.0,88,0.00,,,0.00,,2013-08-11 09:15:00,
2013-08-11 05:28:00,62.0,58.0,-100.00,East,90,0.0,0.0,88,0.00,,,0.00,,2013-08-11 09:28:00,
2013-08-11 05:35:00,62.0,58.0,-100.00,East,90,0.0,0.0,87,0.00,,,0.00,,2013-08-11 09:35:00,
2013-08-11 05:43:00,62.0,58.0,-100.00,East,90,0.0,0.0,87,0.00,,,0.00,,2013-08-11 09:43:00,
2013-08-11 06:05:00,63.0,59.0,-100.00,East,90,0.0,0.0,87,0.00,,,0.00,,2013-08-11 10:05:00,
2013-08-11 06:14:00,63.0,59.0,-100.00,East,90,0.0,0.0,86,0.00,,,0.00,,2013-08-11 10:14:00,
2013-08-11 06:28:00,63.0,59.0,-100.00,East,90,0.0,0.0,86,0.00,,,0.00,,2013-08-11 10:28:00,
2013-08-11 06:35:00,63.0,59.0,-100.00,East,90,0.0,0.0,86,0.00,,,0.00,,2013-08-11 10:35:00,
2013-08-11 06:45:00,63.0,59.0,-100.00,East,90,0.0,0.0,86,0.00,,,0.00,,2013-08-11 10:45:00,
2013-08-11 06:55:00,63.0,59.0,-100.00,East,90,0.0,0.0,86,0.00,,,0.00,,2013-08-11 10:55:00,
2013-08-11 07:06:00,63.0,59.0,-100.00,East,90,0.0,0.0,86,0.00,,,0.00,,2013-08-11 11:06:00,
2013-08-11 07:15:00,63.0,59.0,-100.00,East,90,0.0,0.0,86,0.00,,,0.00,,2013-08-11 11:15:00,
2013-08-11 07:24:00,63.0,59.0,-100.00,East,90,0.0,0.0,87,0.00,,,0.00,,2013-08-11 11:24:00,
2013-08-11 07:47:00,63.0,59.0,-100.00,East,90,0.0,0.0,87,0.00,,,0.00,,2013-08-11 11:47:00,
2013-08-11 07:56:00,63.0,59.0,-100.00,East,90,0.0,0.0,87,0.00,,,0.00,,2013-08-11 11:56:00,
2013-08-11 08:06:00,63.0,59.0,-100.00,East,90,0.0,0.0,87,0.00,,,0.00,,2013-08-11 12:06:00,
2013-08-11 08:15:00,63.0,59.0,-100.00,East,90,0.0,0.0,87,0.00,,,0.00,,2013-08-11 12:15:00,
2013-08-11 08:29:00,63.0,59.0,-100.00,East,90,0.0,0.0,87,0.00,,,0.00,,2013-08-11 12:29:00,
2013-08-11 08:36:00,63.0,59.0,-100.00,East,90,0.0,0.0,87,0.00,,,0.00,,2013-08-11 12:36:00,
2013-08-11 08:45:00,64.0,60.0,-100.00,East,90,0.0,0.0,87,0.00,,,0.00,,2013-08-11 12:45:00,
2013-08-11 08:54:00,64.0,60.0,-100.00,East,90,0.0,0.0,87,0.00,,,0.00,,2013-08-11 12:54:00,
2013-08-11 09:06:00,64.0,60.0,-100.00,East,90,0.0,0.0,86,0.00,,,0.00,,2013-08-11 13:06:00,
2013-08-11 09:16:00,64.0,60.0,-100.00,East,90,0.0,0.0,86,0.00,,,0.00,,2013-08-11 13:16:00,
2013-08-11 09:25:00,65.0,61.0,-100.00,East,90,0.0,0.0,86,0.00,,,0.00,,2013-08-11 13:25:00,
2013-08-11 09:39:00,66.0,62.0,-100.00,East,90,0.0,2.0,86,0.00,,,0.00,,2013-08-11 13:39:00,
2013-08-11 09:45:00,66.0,61.0,-100.00,SSE,158,0.0,0.0,84,0.00,,,0.00,,2013-08-11 13:45:00,
2013-08-11 09:55:00,67.0,62.0,-100.00,South,180,2.0,5.0,83,0.00,,,0.00,,2013-08-11 13:55:00,
2013-08-11 10:05:00,67.0,61.0,-100.00,SSW,203,1.0,3.0,81,0.00,,,0.00,,2013-08-11 14:05:00,
2013-08-11 10:24:00,68.0,61.0,-100.00,SW,225,0.0,0.0,79,0.00,,,0.00,,2013-08-11 14:24:00,
2013-08-11 10:34:00,69.0,62.0,-100.00,South,180,2.0,5.0,78,0.00,,,0.00,,2013-08-11 14:34:00,
2013-08-11 10:47:00,69.0,61.0,-100.00,SSW,203,3.0,5.0,76,0.00,,,0.00,,2013-08-11 14:47:00,
2013-08-11 10:56:00,70.0,62.0,-100.00,West,270,0.0,0.0,75,0.00,,,0.00,,2013-08-11 14:56:00,
2013-08-11 11:14:00,71.0,62.0,-100.00,WSW,248,3.0,7.0,72,0.00,,,0.00,,2013-08-11 15:14:00,
2013-08-11 11:24:00,71.0,62.0,-100.00,SW,225,1.0,3.0,72,0.00,,,0.00,,2013-08-11 15:24:00,
2013-08-11 11:48:00,71.0,61.0,-100.00,West,270,1.0,6.0,70,0.00,,,0.00,,2013-08-11 15:48:00,
2013-08-11 11:57:00,72.0,60.0,-100.00,West,270,2.0,8.0,66,0.00,,,0.00,,2013-08-11 15:57:00,
2013-08-11 12:09:00,71.0,59.0,-100.00,West,270,1.0,0.0,66,0.00,,,0.00,,2013-08-11 16:09:00,
2013-08-11 12:14:00,72.0,60.0,-100.00,West,270,3.0,6.0,65,0.00,,,0.00,,2013-08-11 16:14:00,
2013-08-11 12:28:00,73.0,61.0,-100.00,WSW,248,2.0,6.0,65,0.00,,,0.00,,2013-08-11 16:28:00,
2013-08-11 12:39:00,72.0,59.0,-100.00,South,180,2.0,2.0,64,0.00,,,0.00,,2013-08-11 16:39:00,
2013-08-11 12:46:00,73.0,60.0,-100.00,South,180,3.0,3.0,63,0.00,,,0.00,,2013-08-11 16:46:00,
2013-08-11 12:55:00,73.0,60.0,-100.00,SSE,158,3.0,5.0,63,0.00,,,0.00,,2013-08-11 16:55:00,
2013-08-11 13:08:00,72.0,58.0,-100.00,WSW,248,5.0,9.0,62,0.00,,,0.00,,2013-08-11 17:08:00,
2013-08-11 13:13:00,72.0,58.0,-100.00,WSW,248,5.0,9.0,62,0.00,,,0.00,,2013-08-11 17:13:00,
2013-08-11 13:25:00,72.0,58.0,-100.00,South,180,1.0,6.0,62,0.00,,,0.00,,2013-08-11 17:25:00,
2013-08-11 13:36:00,72.0,59.0,-100.00,WSW,248,0.0,0.0,63,0.00,,,0.00,,2013-08-11 17:36:00,
2013-08-11 13:45:00,72.0,59.0,-100.00,SW,225,2.0,5.0,63,0.00,,,0.00,,2013-08-11 17:45:00,
2013-08-11 13:58:00,73.0,57.0,-100.00,South,180,0.0,0.0,58,0.00,,,0.00,,2013-08-11 17:58:00,
2013-08-11 14:06:00,73.0,58.0,-100.00,WSW,248,0.0,6.0,60,0.00,,,0.00,,2013-08-11 18:06:00,
2013-08-11 14:17:00,72.0,58.0,-100.00,SW,225,0.0,0.0,61,0.00,,,0.00,,2013-08-11 18:17:00,
2013-08-11 14:28:00,73.0,59.0,-100.00,WNW,293,0.0,0.0,62,0.00,,,0.00,,2013-08-11 18:28:00,
2013-08-11 14:39:00,72.0,59.0,-100.00,WSW,248,0.0,0.0,63,0.00,,,0.00,,2013-08-11 18:39:00,
2013-08-11 14:47:00,72.0,58.0,-100.00,WNW,293,0.0,0.0,62,0.00,,,0.00,,2013-08-11 18:47:00,
2013-08-11 14:54:00,73.0,57.0,-100.00,SW,225,0.0,0.0,58,0.00,,,0.00,,2013-08-11 18:54:00,
2013-08-11 15:08:00,75.0,58.0,-100.00,West,270,1.0,8.0,55,0.00,,,0.00,,2013-08-11 19:08:00,
2013-08-11 15:25:00,74.0,57.0,-100.00,West,270,2.0,6.0,55,0.00,,,0.00,,2013-08-11 19:25:00,
2013-08-11 15:33:00,73.0,55.0,-100.00,NW,315,5.0,6.0,53,0.00,,,0.00,,2013-08-11 19:33:00,
2013-08-11 15:49:00,75.0,55.0,-100.00,SSW,203,5.0,8.0,50,0.00,,,0.00,,2013-08-11 19:49:00,
2013-08-11 15:56:00,76.0,55.0,-100.00,WSW,248,5.0,8.0,48,0.00,,,0.00,,2013-08-11 19:56:00,
2013-08-11 16:06:00,76.0,54.0,-100.00,SE,135,5.0,5.0,47,0.00,,,0.00,,2013-08-11 20:06:00,
2013-08-11 16:18:00,76.0,55.0,-100.00,WSW,248,2.0,10.0,48,0.00,,,0.00,,2013-08-11 20:18:00,
2013-08-11 16:38:00,77.0,55.0,-100.00,WNW,293,1.0,7.0,46,0.00,,,0.00,,2013-08-11 20:38:00,
2013-08-11 16:47:00,76.0,54.0,-100.00,WNW,293,1.0,3.0,46,0.00,,,0.00,,2013-08-11 20:47:00,
2013-08-11 17:13:00,75.0,54.0,-100.00,West,270,1.0,5.0,48,0.00,,,0.00,,2013-08-11 21:13:00,
2013-08-11 17:27:00,75.0,54.0,-100.00,WNW,293,2.0,3.0,48,0.00,,,0.00,,2013-08-11 21:27:00,
2013-08-11 17:34:00,75.0,54.0,-100.00,WNW,293,0.0,3.0,48,0.00,,,0.00,,2013-08-11 21:34:00,
2013-08-11 17:46:00,74.0,53.0,-100.00,WNW,293,0.0,0.0,48,0.00,,,0.00,,2013-08-11 21:46:00,
2013-08-11 17:54:00,75.0,54.0,-100.00,West,270,6.0,7.0,48,0.00,,,0.00,,2013-08-11 21:54:00,
2013-08-11 18:04:00,74.0,55.0,-100.00,WSW,248,0.0,0.0,51,0.00,,,0.00,,2013-08-11 22:04:00,
2013-08-11 18:15:00,74.0,54.0,-100.00,NW,315,0.0,0.0,50,0.00,,,0.00,,2013-08-11 22:15:00,
2013-08-11 18:25:00,74.0,54.0,-100.00,NW,315,0.0,0.0,50,0.00,,,0.00,,2013-08-11 22:25:00,
2013-08-11 18:35:00,74.0,54.0,-100.00,West,270,3.0,6.0,49,0.00,,,0.00,,2013-08-11 22:35:00,
2013-08-11 18:46:00,73.0,53.0,-100.00,West,270,0.0,0.0,50,0.00,,,0.00,,2013-08-11 22:46:00,
2013-08-11 18:55:00,74.0,54.0,-100.00,West,270,0.0,0.0,50,0.00,,,0.00,,2013-08-11 22:55:00,
2013-08-11 19:16:00,73.0,53.0,-100.00,WSW,248,0.0,0.0,50,0.00,,,0.00,,2013-08-11 23:16:00,
2013-08-11 19:28:00,73.0,54.0,-100.00,WSW,248,0.0,0.0,51,0.00,,,0.00,,2013-08-11 23:28:00,
2013-08-11 19:35:00,73.0,54.0,-100.00,WSW,248,0.0,0.0,51,0.00,,,0.00,,2013-08-11 23:35:00,
2013-08-11 19:47:00,73.0,54.0,-100.00,WSW,248,0.0,0.0,51,0.00,,,0.00,,2013-08-11 23:47:00,
2013-08-11 19:56:00,73.0,53.0,-100.00,WSW,248,0.0,0.0,50,0.00,,,0.00,,2013-08-11 23:56:00,
2013-08-11 20:05:00,73.0,54.0,-100.00,WSW,248,0.0,0.0,52,0.00,,,0.00,,2013-08-12 00:05:00,
2013-08-11 20:24:00,72.0,55.0,-100.00,WSW,248,0.0,0.0,55,0.00,,,0.00,,2013-08-12 00:24:00,
2013-08-11 20:37:00,72.0,55.0,-100.00,WSW,248,0.0,0.0,56,0.00,,,0.00,,2013-08-12 00:37:00,
2013-08-11 20:49:00,71.0,55.0,-100.00,WSW,248,0.0,0.0,57,0.00,,,0.00,,2013-08-12 00:49:00,
2013-08-11 21:07:00,71.0,56.0,-100.00,WSW,248,0.0,0.0,60,0.00,,,0.00,,2013-08-12 01:07:00,
2013-08-11 21:14:00,71.0,57.0,-100.00,WSW,248,0.0,0.0,62,0.00,,,0.00,,2013-08-12 01:14:00,
2013-08-11 21:25:00,70.0,57.0,-100.00,WSW,248,0.0,0.0,64,0.00,,,0.00,,2013-08-12 01:25:00,
2013-08-11 21:37:00,69.0,58.0,-100.00,WSW,248,0.0,0.0,67,0.00,,,0.00,,2013-08-12 01:37:00,
2013-08-11 21:46:00,68.0,57.0,-100.00,WSW,248,0.0,0.0,68,0.00,,,0.00,,2013-08-12 01:46:00,
2013-08-11 21:55:00,68.0,58.0,-100.00,WSW,248,0.0,0.0,70,0.00,,,0.00,,2013-08-12 01:55:00,
2013-08-11 22:08:00,67.0,58.0,-100.00,WSW,248,0.0,0.0,72,0.00,,,0.00,,2013-08-12 02:08:00,
2013-08-11 22:35:00,66.0,59.0,-100.00,WSW,248,0.0,0.0,78,0.00,,,0.00,,2013-08-12 02:35:00,
2013-08-11 22:55:00,65.0,59.0,-100.00,WSW,248,0.0,0.0,80,0.00,,,0.00,,2013-08-12 02:55:00,
2013-08-11 23:15:00,64.0,58.0,-100.00,WSW,248,0.0,0.0,82,0.00,,,0.00,,2013-08-12 03:15:00,
2013-08-11 23:25:00,64.0,59.0,-100.00,WSW,248,0.0,0.0,83,0.00,,,0.00,,2013-08-12 03:25:00,
2013-08-11 23:45:00,63.0,58.0,-100.00,WSW,248,0.0,0.0,85,0.00,,,0.00,,2013-08-12 03:45:00,
2013-08-11 23:56:00,63.0,59.0,-100.00,WSW,248,0.0,0.0,86,0.00,,,0.00,,2013-08-12 03:56:00,